sensor_id;sensor_type;location;lat;lon;timestamp;P1;durP1;ratioP1;P2;durP2;ratioP2
6751;SDS011;3413;47.680;9.166;2023-03-01T00:02:22;23.37;;;8.60;;
6751;SDS011;3413;47.680;9.166;2023-03-01T00:07:24;22.50;;;8.10;;
6751;SDS011;3413;47.680;9.166;2023-03-01T00:12:28;18.83;;;8.17;;
6751;SDS011;3413;47.680;9.166;2023-03-01T00:17:30;14.80;;;7.40;;
6751;SDS011;3413;47.680;9.166;2023-03-01T00:22:32;19.77;;;8.30;;
6751;SDS011;3413;47.680;9.166;2023-03-01T00:27:34;21.07;;;7.83;;
6751;SDS011;3413;47.680;9.166;2023-03-01T00:32:36;18.77;;;8.97;;
6751;SDS011;3413;47.680;9.166;2023-03-01T00:37:38;21.83;;;8.40;;
6751;SDS011;3413;47.680;9.166;2023-03-01T00:42:41;20.57;;;9.17;;
6751;SDS011;3413;47.680;9.166;2023-03-01T00:47:43;21.80;;;9.03;;
6751;SDS011;3413;47.680;9.166;2023-03-01T00:52:45;18.37;;;8.03;;
6751;SDS011;3413;47.680;9.166;2023-03-01T00:57:47;18.67;;;8.27;;
6751;SDS011;3413;47.680;9.166;2023-03-01T01:02:49;20.70;;;9.30;;
6751;SDS011;3413;47.680;9.166;2023-03-01T01:07:51;26.33;;;8.70;;
6751;SDS011;3413;47.680;9.166;2023-03-01T01:12:53;20.93;;;8.83;;
6751;SDS011;3413;47.680;9.166;2023-03-01T01:17:56;23.60;;;9.43;;
6751;SDS011;3413;47.680;9.166;2023-03-01T01:22:58;29.07;;;10.47;;
6751;SDS011;3413;47.680;9.166;2023-03-01T01:28:00;24.60;;;9.77;;
6751;SDS011;3413;47.680;9.166;2023-03-01T01:33:01;23.27;;;9.60;;
6751;SDS011;3413;47.680;9.166;2023-03-01T01:38:03;25.10;;;9.37;;
6751;SDS011;3413;47.680;9.166;2023-03-01T01:43:07;20.50;;;9.00;;
6751;SDS011;3413;47.680;9.166;2023-03-01T01:48:38;26.47;;;10.10;;
6751;SDS011;3413;47.680;9.166;2023-03-01T01:53:47;26.27;;;9.77;;
6751;SDS011;3413;47.680;9.166;2023-03-01T01:58:53;21.80;;;9.47;;
6751;SDS011;3413;47.680;9.166;2023-03-01T02:03:56;24.43;;;9.60;;
6751;SDS011;3413;47.680;9.166;2023-03-01T02:08:59;24.03;;;9.67;;
6751;SDS011;3413;47.680;9.166;2023-03-01T02:14:04;23.70;;;9.93;;
6751;SDS011;3413;47.680;9.166;2023-03-01T02:19:07;26.87;;;10.37;;
6751;SDS011;3413;47.680;9.166;2023-03-01T02:29:24;21.60;;;9.33;;
6751;SDS011;3413;47.680;9.166;2023-03-01T02:34:27;24.07;;;10.50;;
6751;SDS011;3413;47.680;9.166;2023-03-01T02:39:42;21.63;;;9.10;;
6751;SDS011;3413;47.680;9.166;2023-03-01T02:44:49;29.00;;;10.10;;
6751;SDS011;3413;47.680;9.166;2023-03-01T02:49:51;22.10;;;8.73;;
6751;SDS011;3413;47.680;9.166;2023-03-01T02:54:58;25.37;;;10.37;;
6751;SDS011;3413;47.680;9.166;2023-03-01T03:00:06;23.70;;;9.10;;
6751;SDS011;3413;47.680;9.166;2023-03-01T03:05:12;23.27;;;9.67;;
6751;SDS011;3413;47.680;9.166;2023-03-01T03:10:18;26.17;;;10.17;;
6751;SDS011;3413;47.680;9.166;2023-03-01T03:15:22;23.53;;;9.30;;
6751;SDS011;3413;47.680;9.166;2023-03-01T03:20:25;24.33;;;8.57;;
6751;SDS011;3413;47.680;9.166;2023-03-01T03:25:29;22.87;;;8.83;;
6751;SDS011;3413;47.680;9.166;2023-03-01T03:30:31;27.20;;;8.83;;
6751;SDS011;3413;47.680;9.166;2023-03-01T03:35:34;27.80;;;9.50;;
6751;SDS011;3413;47.680;9.166;2023-03-01T03:40:42;20.13;;;8.43;;
6751;SDS011;3413;47.680;9.166;2023-03-01T03:45:46;21.83;;;9.20;;
6751;SDS011;3413;47.680;9.166;2023-03-01T03:50:54;24.50;;;8.07;;
6751;SDS011;3413;47.680;9.166;2023-03-01T03:55:57;20.90;;;7.80;;
6751;SDS011;3413;47.680;9.166;2023-03-01T04:00:59;24.83;;;9.53;;
6751;SDS011;3413;47.680;9.166;2023-03-01T04:06:05;23.97;;;8.77;;
6751;SDS011;3413;47.680;9.166;2023-03-01T04:11:07;21.67;;;8.73;;
6751;SDS011;3413;47.680;9.166;2023-03-01T04:16:28;25.03;;;10.20;;
6751;SDS011;3413;47.680;9.166;2023-03-01T04:21:30;21.60;;;9.07;;
6751;SDS011;3413;47.680;9.166;2023-03-01T04:26:32;19.67;;;8.53;;
6751;SDS011;3413;47.680;9.166;2023-03-01T04:31:34;20.67;;;8.47;;
6751;SDS011;3413;47.680;9.166;2023-03-01T04:36:37;26.30;;;10.53;;
6751;SDS011;3413;47.680;9.166;2023-03-01T04:41:41;23.20;;;9.20;;
6751;SDS011;3413;47.680;9.166;2023-03-01T04:46:44;24.43;;;8.47;;
6751;SDS011;3413;47.680;9.166;2023-03-01T04:51:46;20.53;;;8.70;;
6751;SDS011;3413;47.680;9.166;2023-03-01T04:56:48;23.70;;;8.70;;
6751;SDS011;3413;47.680;9.166;2023-03-01T05:01:50;21.67;;;8.57;;
6751;SDS011;3413;47.680;9.166;2023-03-01T05:06:53;21.00;;;8.10;;
6751;SDS011;3413;47.680;9.166;2023-03-01T05:11:55;24.23;;;8.73;;
6751;SDS011;3413;47.680;9.166;2023-03-01T05:16:57;20.37;;;8.37;;
6751;SDS011;3413;47.680;9.166;2023-03-01T05:22:05;19.60;;;8.60;;
6751;SDS011;3413;47.680;9.166;2023-03-01T05:27:07;24.37;;;9.80;;
6751;SDS011;3413;47.680;9.166;2023-03-01T05:32:09;23.70;;;8.27;;
6751;SDS011;3413;47.680;9.166;2023-03-01T05:37:11;22.60;;;9.33;;
6751;SDS011;3413;47.680;9.166;2023-03-01T05:42:13;22.73;;;8.80;;
6751;SDS011;3413;47.680;9.166;2023-03-01T05:47:14;20.30;;;8.20;;
6751;SDS011;3413;47.680;9.166;2023-03-01T05:52:16;19.80;;;7.97;;
6751;SDS011;3413;47.680;9.166;2023-03-01T05:57:18;26.67;;;8.83;;
6751;SDS011;3413;47.680;9.166;2023-03-01T06:02:20;19.27;;;8.33;;
6751;SDS011;3413;47.680;9.166;2023-03-01T06:07:22;26.33;;;9.83;;
6751;SDS011;3413;47.680;9.166;2023-03-01T06:12:24;27.87;;;8.80;;
6751;SDS011;3413;47.680;9.166;2023-03-01T06:17:26;27.23;;;8.80;;
6751;SDS011;3413;47.680;9.166;2023-03-01T06:22:30;20.40;;;8.13;;
6751;SDS011;3413;47.680;9.166;2023-03-01T06:27:32;26.07;;;8.90;;
6751;SDS011;3413;47.680;9.166;2023-03-01T06:32:34;26.70;;;9.03;;
6751;SDS011;3413;47.680;9.166;2023-03-01T06:37:36;25.40;;;9.43;;
6751;SDS011;3413;47.680;9.166;2023-03-01T06:42:38;19.43;;;8.23;;
6751;SDS011;3413;47.680;9.166;2023-03-01T06:47:42;23.50;;;10.20;;
6751;SDS011;3413;47.680;9.166;2023-03-01T06:52:44;26.73;;;10.63;;
6751;SDS011;3413;47.680;9.166;2023-03-01T06:57:46;29.10;;;10.00;;
6751;SDS011;3413;47.680;9.166;2023-03-01T07:02:48;21.00;;;8.90;;
6751;SDS011;3413;47.680;9.166;2023-03-01T07:07:50;23.57;;;9.60;;
6751;SDS011;3413;47.680;9.166;2023-03-01T07:12:55;23.97;;;8.47;;
6751;SDS011;3413;47.680;9.166;2023-03-01T07:17:58;26.63;;;10.63;;
6751;SDS011;3413;47.680;9.166;2023-03-01T07:23:00;22.80;;;8.60;;
6751;SDS011;3413;47.680;9.166;2023-03-01T07:28:01;24.07;;;9.23;;
6751;SDS011;3413;47.680;9.166;2023-03-01T07:33:03;25.17;;;8.83;;
6751;SDS011;3413;47.680;9.166;2023-03-01T07:38:05;25.07;;;9.50;;
6751;SDS011;3413;47.680;9.166;2023-03-01T07:43:07;21.03;;;9.33;;
6751;SDS011;3413;47.680;9.166;2023-03-01T07:48:09;26.43;;;9.90;;
6751;SDS011;3413;47.680;9.166;2023-03-01T07:53:11;18.53;;;8.67;;
6751;SDS011;3413;47.680;9.166;2023-03-01T07:58:13;23.67;;;9.60;;
6751;SDS011;3413;47.680;9.166;2023-03-01T08:03:15;26.33;;;9.80;;
6751;SDS011;3413;47.680;9.166;2023-03-01T08:08:19;28.23;;;10.03;;
6751;SDS011;3413;47.680;9.166;2023-03-01T08:13:21;28.93;;;11.20;;
6751;SDS011;3413;47.680;9.166;2023-03-01T08:18:24;23.00;;;9.03;;
6751;SDS011;3413;47.680;9.166;2023-03-01T08:23:26;22.50;;;8.80;;
6751;SDS011;3413;47.680;9.166;2023-03-01T08:28:28;32.07;;;10.10;;
6751;SDS011;3413;47.680;9.166;2023-03-01T08:33:30;24.30;;;9.27;;
6751;SDS011;3413;47.680;9.166;2023-03-01T08:38:33;27.03;;;10.20;;
6751;SDS011;3413;47.680;9.166;2023-03-01T08:43:35;27.87;;;10.30;;
6751;SDS011;3413;47.680;9.166;2023-03-01T08:48:37;26.67;;;9.60;;
6751;SDS011;3413;47.680;9.166;2023-03-01T08:53:39;22.63;;;10.07;;
6751;SDS011;3413;47.680;9.166;2023-03-01T08:58:45;28.13;;;9.93;;
6751;SDS011;3413;47.680;9.166;2023-03-01T09:03:48;23.20;;;9.33;;
6751;SDS011;3413;47.680;9.166;2023-03-01T09:08:50;30.00;;;10.90;;
6751;SDS011;3413;47.680;9.166;2023-03-01T09:13:52;24.77;;;9.73;;
6751;SDS011;3413;47.680;9.166;2023-03-01T09:18:54;24.27;;;9.53;;
6751;SDS011;3413;47.680;9.166;2023-03-01T09:23:57;29.13;;;9.83;;
6751;SDS011;3413;47.680;9.166;2023-03-01T09:28:59;26.97;;;9.97;;
6751;SDS011;3413;47.680;9.166;2023-03-01T09:34:01;25.80;;;9.27;;
6751;SDS011;3413;47.680;9.166;2023-03-01T09:39:03;23.20;;;8.87;;
6751;SDS011;3413;47.680;9.166;2023-03-01T09:49:25;27.07;;;9.57;;
6751;SDS011;3413;47.680;9.166;2023-03-01T09:54:32;25.93;;;9.13;;
6751;SDS011;3413;47.680;9.166;2023-03-01T10:05:14;23.03;;;10.40;;
6751;SDS011;3413;47.680;9.166;2023-03-01T10:10:43;27.07;;;8.90;;
6751;SDS011;3413;47.680;9.166;2023-03-01T10:15:51;26.90;;;9.53;;
6751;SDS011;3413;47.680;9.166;2023-03-01T10:21:01;24.30;;;8.93;;
6751;SDS011;3413;47.680;9.166;2023-03-01T10:32:03;21.43;;;9.77;;
6751;SDS011;3413;47.680;9.166;2023-03-01T10:37:15;20.27;;;9.00;;
6751;SDS011;3413;47.680;9.166;2023-03-01T10:42:26;29.43;;;11.10;;
6751;SDS011;3413;47.680;9.166;2023-03-01T10:47:35;24.60;;;9.63;;
6751;SDS011;3413;47.680;9.166;2023-03-01T10:52:37;24.27;;;9.60;;
6751;SDS011;3413;47.680;9.166;2023-03-01T10:57:42;31.73;;;9.00;;
6751;SDS011;3413;47.680;9.166;2023-03-01T11:02:47;25.10;;;10.10;;
6751;SDS011;3413;47.680;9.166;2023-03-01T11:08:12;24.77;;;9.53;;
6751;SDS011;3413;47.680;9.166;2023-03-01T11:13:15;23.87;;;9.33;;
6751;SDS011;3413;47.680;9.166;2023-03-01T11:18:19;28.10;;;10.20;;
6751;SDS011;3413;47.680;9.166;2023-03-01T11:23:37;21.70;;;9.07;;
6751;SDS011;3413;47.680;9.166;2023-03-01T11:28:51;22.27;;;9.57;;
6751;SDS011;3413;47.680;9.166;2023-03-01T11:34:09;19.60;;;8.27;;
6751;SDS011;3413;47.680;9.166;2023-03-01T11:39:37;21.70;;;8.13;;
6751;SDS011;3413;47.680;9.166;2023-03-01T11:44:54;26.90;;;9.63;;
6751;SDS011;3413;47.680;9.166;2023-03-01T11:50:02;20.53;;;9.03;;
6751;SDS011;3413;47.680;9.166;2023-03-01T11:55:38;27.30;;;9.90;;
6751;SDS011;3413;47.680;9.166;2023-03-01T12:06:36;21.83;;;8.47;;
6751;SDS011;3413;47.680;9.166;2023-03-01T12:33:07;25.67;;;9.00;;
6751;SDS011;3413;47.680;9.166;2023-03-01T12:49:48;19.70;;;7.60;;
6751;SDS011;3413;47.680;9.166;2023-03-01T12:54:55;19.60;;;7.90;;
6751;SDS011;3413;47.680;9.166;2023-03-01T13:15:32;25.93;;;9.90;;
6751;SDS011;3413;47.680;9.166;2023-03-01T13:31:00;23.07;;;9.17;;
6751;SDS011;3413;47.680;9.166;2023-03-01T13:36:05;23.53;;;8.73;;
6751;SDS011;3413;47.680;9.166;2023-03-01T13:41:10;23.47;;;8.90;;
6751;SDS011;3413;47.680;9.166;2023-03-01T13:46:22;22.70;;;9.00;;
6751;SDS011;3413;47.680;9.166;2023-03-01T13:51:26;23.40;;;9.43;;
6751;SDS011;3413;47.680;9.166;2023-03-01T13:56:33;22.73;;;8.80;;
6751;SDS011;3413;47.680;9.166;2023-03-01T14:01:38;26.00;;;10.30;;
6751;SDS011;3413;47.680;9.166;2023-03-01T14:06:44;26.33;;;10.00;;
6751;SDS011;3413;47.680;9.166;2023-03-01T14:12:02;28.00;;;10.23;;
6751;SDS011;3413;47.680;9.166;2023-03-01T14:22:52;23.80;;;9.43;;
6751;SDS011;3413;47.680;9.166;2023-03-01T14:33:24;18.40;;;8.47;;
6751;SDS011;3413;47.680;9.166;2023-03-01T14:43:46;23.17;;;8.67;;
6751;SDS011;3413;47.680;9.166;2023-03-01T14:49:03;20.43;;;7.83;;
6751;SDS011;3413;47.680;9.166;2023-03-01T14:54:20;21.30;;;8.97;;
6751;SDS011;3413;47.680;9.166;2023-03-01T14:59:25;26.93;;;8.80;;
6751;SDS011;3413;47.680;9.166;2023-03-01T15:04:28;22.03;;;9.40;;
6751;SDS011;3413;47.680;9.166;2023-03-01T15:09:32;30.00;;;11.13;;
6751;SDS011;3413;47.680;9.166;2023-03-01T15:14:39;24.30;;;9.60;;
6751;SDS011;3413;47.680;9.166;2023-03-01T15:19:58;25.30;;;9.67;;
6751;SDS011;3413;47.680;9.166;2023-03-01T15:25:01;22.20;;;8.47;;
6751;SDS011;3413;47.680;9.166;2023-03-01T15:30:04;29.23;;;9.97;;
6751;SDS011;3413;47.680;9.166;2023-03-01T15:40:49;23.33;;;9.23;;
6751;SDS011;3413;47.680;9.166;2023-03-01T15:45:57;24.90;;;8.77;;
6751;SDS011;3413;47.680;9.166;2023-03-01T15:50:59;21.30;;;8.67;;
6751;SDS011;3413;47.680;9.166;2023-03-01T15:56:02;20.40;;;8.37;;
6751;SDS011;3413;47.680;9.166;2023-03-01T16:01:08;22.57;;;8.83;;
6751;SDS011;3413;47.680;9.166;2023-03-01T16:06:14;27.20;;;9.17;;
6751;SDS011;3413;47.680;9.166;2023-03-01T16:11:23;27.20;;;9.43;;
6751;SDS011;3413;47.680;9.166;2023-03-01T16:16:32;25.40;;;10.13;;
6751;SDS011;3413;47.680;9.166;2023-03-01T16:21:37;40.33;;;9.70;;
6751;SDS011;3413;47.680;9.166;2023-03-01T16:26:39;24.90;;;9.57;;
6751;SDS011;3413;47.680;9.166;2023-03-01T16:31:41;23.23;;;9.70;;
6751;SDS011;3413;47.680;9.166;2023-03-01T16:36:43;23.97;;;9.60;;
6751;SDS011;3413;47.680;9.166;2023-03-01T16:41:48;25.53;;;8.93;;
6751;SDS011;3413;47.680;9.166;2023-03-01T16:46:54;23.10;;;9.50;;
6751;SDS011;3413;47.680;9.166;2023-03-01T16:51:56;25.57;;;10.43;;
6751;SDS011;3413;47.680;9.166;2023-03-01T16:57:00;24.33;;;9.10;;
6751;SDS011;3413;47.680;9.166;2023-03-01T17:02:02;29.97;;;10.03;;
6751;SDS011;3413;47.680;9.166;2023-03-01T17:07:07;30.30;;;9.60;;
6751;SDS011;3413;47.680;9.166;2023-03-01T17:12:16;26.73;;;9.80;;
6751;SDS011;3413;47.680;9.166;2023-03-01T17:17:21;29.20;;;9.50;;
6751;SDS011;3413;47.680;9.166;2023-03-01T17:27:40;21.20;;;10.13;;
6751;SDS011;3413;47.680;9.166;2023-03-01T17:32:44;27.83;;;9.40;;
6751;SDS011;3413;47.680;9.166;2023-03-01T17:37:49;38.93;;;11.90;;
6751;SDS011;3413;47.680;9.166;2023-03-01T17:42:54;21.17;;;9.37;;
6751;SDS011;3413;47.680;9.166;2023-03-01T17:47:57;33.23;;;10.00;;
6751;SDS011;3413;47.680;9.166;2023-03-01T17:52:59;21.60;;;8.50;;
6751;SDS011;3413;47.680;9.166;2023-03-01T17:58:01;26.63;;;9.03;;
6751;SDS011;3413;47.680;9.166;2023-03-01T18:03:03;25.10;;;9.53;;
6751;SDS011;3413;47.680;9.166;2023-03-01T18:08:05;25.97;;;9.50;;
6751;SDS011;3413;47.680;9.166;2023-03-01T18:13:08;23.80;;;9.57;;
6751;SDS011;3413;47.680;9.166;2023-03-01T18:18:10;34.63;;;9.93;;
6751;SDS011;3413;47.680;9.166;2023-03-01T18:23:12;31.60;;;10.63;;
6751;SDS011;3413;47.680;9.166;2023-03-01T18:28:14;24.20;;;9.37;;
6751;SDS011;3413;47.680;9.166;2023-03-01T18:33:15;28.53;;;9.70;;
6751;SDS011;3413;47.680;9.166;2023-03-01T18:38:17;29.70;;;9.33;;
6751;SDS011;3413;47.680;9.166;2023-03-01T18:43:19;25.87;;;8.90;;
6751;SDS011;3413;47.680;9.166;2023-03-01T18:48:22;25.70;;;9.87;;
6751;SDS011;3413;47.680;9.166;2023-03-01T18:53:24;22.33;;;9.10;;
6751;SDS011;3413;47.680;9.166;2023-03-01T18:58:26;22.93;;;9.20;;
6751;SDS011;3413;47.680;9.166;2023-03-01T19:03:28;23.00;;;9.00;;
6751;SDS011;3413;47.680;9.166;2023-03-01T19:08:31;24.63;;;10.33;;
6751;SDS011;3413;47.680;9.166;2023-03-01T19:13:33;25.80;;;10.07;;
6751;SDS011;3413;47.680;9.166;2023-03-01T19:18:38;24.43;;;10.10;;
6751;SDS011;3413;47.680;9.166;2023-03-01T19:23:42;23.67;;;10.00;;
6751;SDS011;3413;47.680;9.166;2023-03-01T19:28:44;21.83;;;8.03;;
6751;SDS011;3413;47.680;9.166;2023-03-01T19:33:46;21.57;;;8.67;;
6751;SDS011;3413;47.680;9.166;2023-03-01T19:38:48;21.93;;;8.93;;
6751;SDS011;3413;47.680;9.166;2023-03-01T19:43:50;23.10;;;9.10;;
6751;SDS011;3413;47.680;9.166;2023-03-01T19:48:52;27.60;;;10.10;;
6751;SDS011;3413;47.680;9.166;2023-03-01T19:53:54;25.23;;;10.87;;
6751;SDS011;3413;47.680;9.166;2023-03-01T19:58:56;27.53;;;10.70;;
6751;SDS011;3413;47.680;9.166;2023-03-01T20:04:00;26.20;;;10.73;;
6751;SDS011;3413;47.680;9.166;2023-03-01T20:09:04;28.13;;;10.73;;
6751;SDS011;3413;47.680;9.166;2023-03-01T20:14:21;25.80;;;10.53;;
6751;SDS011;3413;47.680;9.166;2023-03-01T20:19:24;23.43;;;9.17;;
6751;SDS011;3413;47.680;9.166;2023-03-01T20:24:26;19.30;;;8.50;;
6751;SDS011;3413;47.680;9.166;2023-03-01T20:29:28;28.20;;;10.17;;
6751;SDS011;3413;47.680;9.166;2023-03-01T20:34:30;24.23;;;9.03;;
6751;SDS011;3413;47.680;9.166;2023-03-01T20:39:32;25.43;;;10.00;;
6751;SDS011;3413;47.680;9.166;2023-03-01T20:44:34;22.83;;;9.30;;
6751;SDS011;3413;47.680;9.166;2023-03-01T20:49:36;23.80;;;9.53;;
6751;SDS011;3413;47.680;9.166;2023-03-01T20:54:38;26.23;;;10.07;;
6751;SDS011;3413;47.680;9.166;2023-03-01T20:59:40;25.53;;;8.87;;
6751;SDS011;3413;47.680;9.166;2023-03-01T21:04:42;31.73;;;10.70;;
6751;SDS011;3413;47.680;9.166;2023-03-01T21:09:43;23.57;;;9.70;;
6751;SDS011;3413;47.680;9.166;2023-03-01T21:14:45;27.47;;;9.93;;
6751;SDS011;3413;47.680;9.166;2023-03-01T21:19:47;26.10;;;9.77;;
6751;SDS011;3413;47.680;9.166;2023-03-01T21:24:50;30.67;;;11.67;;
6751;SDS011;3413;47.680;9.166;2023-03-01T21:29:52;30.63;;;11.47;;
6751;SDS011;3413;47.680;9.166;2023-03-01T21:34:54;24.03;;;10.53;;
6751;SDS011;3413;47.680;9.166;2023-03-01T21:39:56;27.27;;;11.70;;
6751;SDS011;3413;47.680;9.166;2023-03-01T21:44:58;25.63;;;9.90;;
6751;SDS011;3413;47.680;9.166;2023-03-01T21:50:00;31.07;;;11.30;;
6751;SDS011;3413;47.680;9.166;2023-03-01T21:55:02;33.80;;;12.50;;
6751;SDS011;3413;47.680;9.166;2023-03-01T22:00:04;25.80;;;10.80;;
6751;SDS011;3413;47.680;9.166;2023-03-01T22:05:12;37.63;;;11.50;;
6751;SDS011;3413;47.680;9.166;2023-03-01T22:10:15;27.30;;;10.93;;
6751;SDS011;3413;47.680;9.166;2023-03-01T22:15:17;36.20;;;11.87;;
6751;SDS011;3413;47.680;9.166;2023-03-01T22:20:19;30.10;;;11.77;;
6751;SDS011;3413;47.680;9.166;2023-03-01T22:25:21;29.93;;;11.03;;
6751;SDS011;3413;47.680;9.166;2023-03-01T22:30:23;31.47;;;12.00;;
6751;SDS011;3413;47.680;9.166;2023-03-01T22:35:25;38.20;;;13.00;;
6751;SDS011;3413;47.680;9.166;2023-03-01T22:40:27;34.07;;;12.00;;
6751;SDS011;3413;47.680;9.166;2023-03-01T22:45:29;33.00;;;12.00;;
6751;SDS011;3413;47.680;9.166;2023-03-01T22:50:32;30.43;;;11.17;;
6751;SDS011;3413;47.680;9.166;2023-03-01T22:55:34;27.13;;;10.63;;
6751;SDS011;3413;47.680;9.166;2023-03-01T23:00:36;27.60;;;10.67;;
6751;SDS011;3413;47.680;9.166;2023-03-01T23:05:38;27.40;;;10.83;;
6751;SDS011;3413;47.680;9.166;2023-03-01T23:10:40;31.70;;;11.80;;
6751;SDS011;3413;47.680;9.166;2023-03-01T23:15:42;24.67;;;10.67;;
6751;SDS011;3413;47.680;9.166;2023-03-01T23:20:45;30.83;;;12.10;;
6751;SDS011;3413;47.680;9.166;2023-03-01T23:25:53;25.33;;;11.47;;
6751;SDS011;3413;47.680;9.166;2023-03-01T23:31:00;36.60;;;11.37;;
6751;SDS011;3413;47.680;9.166;2023-03-01T23:36:26;34.07;;;12.47;;
6751;SDS011;3413;47.680;9.166;2023-03-01T23:41:32;34.07;;;11.83;;
6751;SDS011;3413;47.680;9.166;2023-03-01T23:46:36;33.80;;;12.87;;
6751;SDS011;3413;47.680;9.166;2023-03-01T23:51:42;29.83;;;11.13;;
6751;SDS011;3413;47.680;9.166;2023-03-01T23:56:50;28.53;;;11.57;;
